Time;durP1;ratioP1;P1;durP2;ratioP2;P2;SDS_P1;SDS_P2;PMS_P1;PMS_P2;Temp;Humidity;BMP_temperature;BMP_pressure;BME280_temperature;BME280_humidity;BME280_pressure;Samples;Min_cycle;Max_cycle;Signal;HPM_P1;HPM_P2
2024/01/13 00:00:16;;;;;;;0.30;0.30;;;-2.50;94.90;;;;;;4936718;29;20178;-63
2024/01/13 00:02:42;;;;;;;0.50;0.50;;;-2.40;94.90;;;;;;4924713;29;20443;-62
2024/01/13 00:05:08;;;;;;;0.40;0.40;;;-2.40;94.80;;;;;;4900494;29;20175;-64
2024/01/13 00:07:34;;;;;;;0.75;0.75;;;-2.40;94.70;;;;;;4917276;29;20805;-63
2024/01/13 00:09:59;;;;;;;0.40;0.40;;;-2.40;94.70;;;;;;4917237;29;20182;-64
2024/01/13 00:12:25;;;;;;;0.50;0.50;;;-2.40;94.50;;;;;;4916912;29;20230;-63
2024/01/13 00:14:51;;;;;;;1.80;0.70;;;-2.50;94.30;;;;;;4917079;29;20204;-63
2024/01/13 00:17:17;;;;;;;0.30;0.30;;;-2.60;94.50;;;;;;4917201;29;20579;-63
2024/01/13 00:19:43;;;;;;;0.40;0.40;;;-2.60;94.60;;;;;;4916975;29;20186;-64
2024/01/13 00:22:08;;;;;;;0.50;0.50;;;-2.50;94.70;;;;;;4899710;29;20194;-63
2024/01/13 00:24:34;;;;;;;0.40;0.40;;;-2.50;94.60;;;;;;4916358;29;20171;-63
2024/01/13 00:27:00;;;;;;;0.40;0.40;;;-2.50;94.70;;;;;;4916978;29;20561;-63
2024/01/13 00:29:25;;;;;;;0.50;0.50;;;-2.40;94.60;;;;;;4916902;29;20262;-64
2024/01/13 00:31:51;;;;;;;0.50;0.50;;;-2.40;94.50;;;;;;4916795;29;20182;-63
2024/01/13 00:34:16;;;;;;;0.40;0.40;;;-2.30;94.50;;;;;;4916896;29;20654;-64
2024/01/13 00:36:42;;;;;;;0.50;0.50;;;-2.30;94.30;;;;;;4916788;29;20206;-64
2024/01/13 00:39:08;;;;;;;0.40;0.40;;;-2.30;94.10;;;;;;4916803;29;20266;-64
2024/01/13 00:41:34;;;;;;;1.50;1.40;;;-2.30;94.00;;;;;;4916245;29;20766;-63
2024/01/13 00:44:00;;;;;;;0.57;0.57;;;-2.30;94.00;;;;;;4916523;29;20628;-63
2024/01/13 00:46:26;;;;;;;0.40;0.40;;;-2.50;94.00;;;;;;4916560;29;20205;-64
2024/01/13 00:48:52;;;;;;;0.40;0.40;;;-2.60;94.10;;;;;;4916600;29;20175;-63
2024/01/13 00:51:17;;;;;;;0.40;0.40;;;-2.60;94.00;;;;;;4916312;29;20179;-64
2024/01/13 00:53:43;;;;;;;0.40;0.40;;;-2.60;94.10;;;;;;4916288;29;20210;-64
2024/01/13 00:56:09;;;;;;;0.30;0.30;;;-2.70;94.10;;;;;;4916278;29;20235;-64
2024/01/13 00:58:35;;;;;;;0.50;0.50;;;-2.70;94.20;;;;;;4916241;29;20289;-63
2024/01/13 01:01:02;;;;;;;0.60;0.60;;;-2.80;94.40;;;;;;4916110;29;20407;-64
2024/01/13 01:03:28;;;;;;;0.38;0.38;;;-2.70;94.60;;;;;;4916423;29;20210;-64
2024/01/13 01:05:54;;;;;;;0.40;0.40;;;-2.60;94.60;;;;;;4916235;29;20669;-63
2024/01/13 01:08:20;;;;;;;0.80;0.80;;;-2.60;94.50;;;;;;4916312;29;20182;-64
2024/01/13 01:10:46;;;;;;;0.40;0.40;;;-2.60;94.40;;;;;;4915958;29;20527;-63
2024/01/13 01:13:12;;;;;;;0.30;0.30;;;-2.60;94.20;;;;;;4915797;29;20467;-64
2024/01/13 01:15:38;;;;;;;0.40;0.40;;;-2.60;94.20;;;;;;4916127;29;20665;-63
2024/01/13 01:18:04;;;;;;;0.30;0.30;;;-2.70;94.30;;;;;;4916174;29;20202;-63
2024/01/13 01:20:29;;;;;;;0.40;0.40;;;-2.60;94.20;;;;;;4915877;29;20166;-64
2024/01/13 01:22:55;;;;;;;0.37;0.37;;;-2.70;94.00;;;;;;4915753;29;20434;-64
2024/01/13 01:25:21;;;;;;;0.40;0.40;;;-2.80;94.00;;;;;;4916658;29;20649;-64
2024/01/13 01:27:46;;;;;;;0.30;0.30;;;-2.70;94.40;;;;;;4915839;29;20207;-63
2024/01/13 01:30:12;;;;;;;0.40;0.40;;;-2.70;94.60;;;;;;4915682;29;20217;-64
2024/01/13 01:32:38;;;;;;;0.40;0.40;;;-2.50;94.20;;;;;;4915679;29;20697;-63
2024/01/13 01:35:06;;;;;;;0.50;0.50;;;-2.50;94.00;;;;;;4915741;29;20260;-64
2024/01/13 01:37:34;;;;;;;0.40;0.40;;;-2.60;93.80;;;;;;4915713;29;20206;-64
2024/01/13 01:40:00;;;;;;;0.40;0.40;;;-2.60;93.70;;;;;;4915533;29;20203;-64
2024/01/13 01:42:26;;;;;;;0.40;0.40;;;-2.60;93.60;;;;;;4915366;29;20295;-63
2024/01/13 01:44:51;;;;;;;0.40;0.40;;;-2.60;93.60;;;;;;4915694;29;20443;-64
2024/01/13 01:47:19;;;;;;;0.40;0.40;;;-2.60;93.50;;;;;;4915807;29;20182;-63
2024/01/13 01:49:45;;;;;;;0.40;0.40;;;-2.50;93.40;;;;;;4915598;29;20460;-64
2024/01/13 01:52:12;;;;;;;0.30;0.30;;;-2.50;93.30;;;;;;4915262;29;20697;-63
2024/01/13 01:54:38;;;;;;;0.40;0.40;;;-2.60;93.40;;;;;;4915666;29;20672;-64
2024/01/13 01:57:04;;;;;;;0.50;0.50;;;-2.60;93.30;;;;;;4915395;29;20214;-63
2024/01/13 01:59:30;;;;;;;0.32;0.32;;;-2.60;93.30;;;;;;4915373;29;20186;-64
2024/01/13 02:01:58;;;;;;;0.43;0.43;;;-2.70;93.40;;;;;;4915071;29;20551;-62
2024/01/13 02:04:24;;;;;;;0.40;0.40;;;-2.80;93.50;;;;;;4915334;29;20258;-63
2024/01/13 02:06:50;;;;;;;0.40;0.40;;;-3.00;93.60;;;;;;4915400;29;20179;-64
2024/01/13 02:09:17;;;;;;;0.40;0.40;;;-3.10;94.20;;;;;;4915252;29;20174;-64
2024/01/13 02:11:42;;;;;;;0.40;0.40;;;-3.00;94.40;;;;;;4915137;29;20211;-64
2024/01/13 02:14:08;;;;;;;0.40;0.40;;;-2.90;94.30;;;;;;4915414;29;20241;-64
2024/01/13 02:16:34;;;;;;;0.50;0.50;;;-2.90;94.30;;;;;;4915508;29;20493;-64
2024/01/13 02:19:00;;;;;;;0.52;0.52;;;-2.80;94.30;;;;;;4915404;29;20593;-64
2024/01/13 02:21:25;;;;;;;0.47;0.47;;;-2.70;93.90;;;;;;4915002;29;20183;-63
2024/01/13 02:23:51;;;;;;;0.40;0.40;;;-2.70;93.70;;;;;;4915096;29;20258;-64
2024/01/13 02:26:17;;;;;;;0.40;0.40;;;-2.60;93.70;;;;;;4915309;29;20187;-64
2024/01/13 02:28:42;;;;;;;0.40;0.40;;;-2.70;93.60;;;;;;4915211;29;20182;-63
2024/01/13 02:31:08;;;;;;;0.30;0.30;;;-2.80;93.60;;;;;;4914988;29;20190;-63
2024/01/13 02:33:33;;;;;;;0.33;0.33;;;-2.80;93.80;;;;;;4915129;29;20195;-64
2024/01/13 02:35:59;;;;;;;0.30;0.30;;;-2.70;94.00;;;;;;4915155;29;20190;-63
2024/01/13 02:38:25;;;;;;;0.30;0.30;;;-2.70;93.80;;;;;;4914959;29;20207;-64
2024/01/13 02:40:50;;;;;;;0.30;0.30;;;-2.60;93.60;;;;;;4898000;29;20203;-64
2024/01/13 02:43:16;;;;;;;1.13;1.13;;;-2.60;93.20;;;;;;4914827;29;20299;-63
2024/01/13 02:45:41;;;;;;;0.40;0.40;;;-2.60;92.90;;;;;;4915135;29;20182;-63
2024/01/13 02:48:17;;;;;;;0.40;0.40;;;-2.70;92.70;;;;;;4917648;29;20195;-64
2024/01/13 02:50:53;;;;;;;0.40;0.40;;;-2.90;92.70;;;;;;4918611;29;20202;-64
2024/01/13 02:53:18;;;;;;;0.40;0.40;;;-3.10;93.10;;;;;;4918383;29;20258;-64
2024/01/13 02:55:44;;;;;;;0.40;0.40;;;-3.10;93.60;;;;;;4918615;29;20179;-63
2024/01/13 02:58:09;;;;;;;0.43;0.43;;;-2.90;93.60;;;;;;4918556;29;20731;-63
2024/01/13 03:00:35;;;;;;;0.80;0.80;;;-2.90;93.30;;;;;;4918360;29;20227;-63
2024/01/13 03:03:00;;;;;;;0.83;0.83;;;-2.90;92.90;;;;;;4918238;29;20246;-63
2024/01/13 03:05:26;;;;;;;0.30;0.30;;;-2.90;92.80;;;;;;4917125;29;20210;-64
2024/01/13 03:07:52;;;;;;;0.50;0.50;;;-2.90;93.00;;;;;;4918362;29;20175;-63
2024/01/13 03:10:17;;;;;;;0.43;0.43;;;-2.90;93.00;;;;;;4918082;29;20332;-64
2024/01/13 03:12:43;;;;;;;0.50;0.50;;;-2.80;92.90;;;;;;4918029;29;20194;-64
2024/01/13 03:15:10;;;;;;;0.40;0.40;;;-2.80;92.80;;;;;;4918278;29;20650;-64
2024/01/13 03:17:36;;;;;;;0.40;0.40;;;-2.90;92.80;;;;;;4918087;29;20215;-63
2024/01/13 03:20:02;;;;;;;0.40;0.40;;;-3.00;92.90;;;;;;4918182;29;20198;-64
2024/01/13 03:22:28;;;;;;;0.40;0.40;;;-3.10;92.90;;;;;;4917893;29;20423;-63
2024/01/13 03:24:54;;;;;;;0.40;0.40;;;-3.10;93.10;;;;;;4918179;29;20221;-64
2024/01/13 03:27:20;;;;;;;0.40;0.40;;;-3.10;93.10;;;;;;4918129;29;20676;-63
2024/01/13 03:29:45;;;;;;;0.40;0.40;;;-3.10;93.10;;;;;;4917987;29;20183;-64
2024/01/13 03:32:11;;;;;;;0.40;0.40;;;-3.30;93.00;;;;;;4900538;29;20266;-63
2024/01/13 03:34:37;;;;;;;0.57;0.57;;;-3.40;92.90;;;;;;4917896;29;20179;-64
2024/01/13 03:37:02;;;;;;;0.30;0.30;;;-3.40;93.00;;;;;;4917784;29;20217;-63
2024/01/13 03:39:28;;;;;;;0.30;0.30;;;-3.30;92.90;;;;;;4917826;29;20505;-64
2024/01/13 03:41:53;;;;;;;1.80;1.33;;;-3.20;92.70;;;;;;4917405;29;20198;-63
2024/01/13 03:44:19;;;;;;;0.40;0.40;;;-3.30;92.30;;;;;;4917559;29;20618;-63
2024/01/13 03:46:45;;;;;;;0.63;0.63;;;-3.40;92.10;;;;;;4929169;29;20186;-63
2024/01/13 03:49:10;;;;;;;0.40;0.40;;;-3.50;92.20;;;;;;4936491;29;20206;-64
2024/01/13 03:51:36;;;;;;;0.40;0.40;;;-3.50;92.40;;;;;;4936216;29;20201;-63
2024/01/13 03:54:01;;;;;;;0.40;0.40;;;-3.40;92.60;;;;;;4936464;29;20672;-63
2024/01/13 03:56:27;;;;;;;0.30;0.30;;;-3.30;92.40;;;;;;4936989;29;20178;-64
2024/01/13 03:58:53;;;;;;;0.40;0.40;;;-3.20;92.10;;;;;;4935266;29;20281;-64
2024/01/13 04:01:18;;;;;;;0.50;0.50;;;-3.20;91.90;;;;;;4936178;29;20178;-64
2024/01/13 04:03:44;;;;;;;0.50;0.50;;;-3.30;91.90;;;;;;4936353;29;20273;-63
2024/01/13 04:06:09;;;;;;;0.50;0.50;;;-3.40;92.00;;;;;;4936170;29;20636;-63
2024/01/13 04:08:35;;;;;;;0.47;0.47;;;-3.60;92.10;;;;;;4936302;29;20178;-64
2024/01/13 04:11:05;;;;;;;0.53;0.53;;;-3.60;92.20;;;;;;4936130;29;20182;-63
2024/01/13 04:13:30;;;;;;;0.47;0.47;;;-3.60;92.20;;;;;;4936071;29;20205;-63
2024/01/13 04:15:56;;;;;;;0.43;0.43;;;-3.60;92.10;;;;;;4936155;29;20182;-63
2024/01/13 04:18:22;;;;;;;0.60;0.60;;;-3.60;92.00;;;;;;4936109;29;20284;-64
2024/01/13 04:20:47;;;;;;;0.40;0.40;;;-3.50;92.10;;;;;;4935939;29;20207;-63
2024/01/13 04:23:13;;;;;;;0.50;0.50;;;-3.60;92.00;;;;;;4935915;29;20564;-64
2024/01/13 04:25:38;;;;;;;0.50;0.50;;;-3.50;91.80;;;;;;4936037;29;20171;-63
2024/01/13 04:28:04;;;;;;;0.30;0.30;;;-3.40;91.40;;;;;;4935958;29;20270;-63
2024/01/13 04:30:30;;;;;;;0.40;0.40;;;-3.50;91.60;;;;;;4935773;29;20192;-64
2024/01/13 04:32:57;;;;;;;0.60;0.60;;;-3.60;91.10;;;;;;4935601;29;20940;-64
2024/01/13 04:35:22;;;;;;;0.60;0.60;;;-3.50;91.10;;;;;;4935750;29;20177;-63
2024/01/13 04:37:48;;;;;;;0.50;0.50;;;-3.50;91.00;;;;;;4935783;29;20210;-63
2024/01/13 04:40:14;;;;;;;0.50;0.50;;;-3.50;91.00;;;;;;4935502;29;20178;-64
2024/01/13 04:42:39;;;;;;;0.43;0.43;;;-3.50;90.60;;;;;;4935412;29;20229;-64
2024/01/13 04:45:06;;;;;;;0.40;0.40;;;-3.50;90.60;;;;;;4935639;29;20173;-64
2024/01/13 04:47:31;;;;;;;0.60;0.60;;;-3.60;90.20;;;;;;4935583;29;20555;-64
2024/01/13 04:49:57;;;;;;;0.40;0.40;;;-3.60;90.50;;;;;;4935084;29;20483;-64
2024/01/13 04:52:22;;;;;;;0.50;0.50;;;-3.60;90.80;;;;;;4934676;29;20206;-64
2024/01/13 04:54:48;;;;;;;0.40;0.40;;;-3.70;91.00;;;;;;4935345;29;20186;-64
2024/01/13 04:57:14;;;;;;;0.50;0.50;;;-3.80;91.20;;;;;;4935801;29;20652;-65
2024/01/13 04:59:39;;;;;;;0.57;0.57;;;-3.80;91.30;;;;;;4935292;29;20174;-64
2024/01/13 05:02:05;;;;;;;0.40;0.40;;;-3.80;91.40;;;;;;4934992;29;20656;-63
2024/01/13 05:04:31;;;;;;;0.40;0.40;;;-3.90;91.30;;;;;;4935334;29;20301;-63
2024/01/13 05:06:56;;;;;;;0.50;0.50;;;-3.90;91.40;;;;;;4935268;29;20184;-64
2024/01/13 05:09:22;;;;;;;0.43;0.43;;;-3.90;91.40;;;;;;4934912;29;20414;-64
2024/01/13 05:11:48;;;;;;;0.60;0.60;;;-3.90;91.30;;;;;;4934645;29;20193;-64
2024/01/13 05:14:15;;;;;;;0.40;0.40;;;-4.00;91.10;;;;;;4935052;29;20197;-63
2024/01/13 05:16:41;;;;;;;0.60;0.60;;;-4.10;91.00;;;;;;4935232;29;20461;-64
2024/01/13 05:19:06;;;;;;;0.40;0.40;;;-4.10;91.10;;;;;;4935023;29;20178;-64
2024/01/13 05:21:33;;;;;;;0.47;0.47;;;-3.90;90.80;;;;;;4934750;29;20807;-64
2024/01/13 05:23:58;;;;;;;0.40;0.40;;;-3.80;90.80;;;;;;4934893;29;20213;-64
2024/01/13 05:26:25;;;;;;;0.40;0.40;;;-3.80;90.70;;;;;;4935472;29;20166;-64
2024/01/13 05:28:50;;;;;;;0.47;0.47;;;-3.90;90.70;;;;;;4934769;29;20648;-63
2024/01/13 05:31:16;;;;;;;0.40;0.40;;;-4.00;91.10;;;;;;4934597;29;20186;-63
2024/01/13 05:33:42;;;;;;;0.40;0.40;;;-3.90;91.00;;;;;;4934762;29;20190;-64
2024/01/13 05:36:08;;;;;;;0.45;0.45;;;-4.00;91.00;;;;;;4934666;29;20410;-64
2024/01/13 05:38:34;;;;;;;0.40;0.40;;;-3.90;91.00;;;;;;4934653;29;20217;-63
2024/01/13 05:40:59;;;;;;;0.50;0.50;;;-3.80;90.80;;;;;;4934392;29;20174;-63
2024/01/13 05:43:26;;;;;;;0.50;0.50;;;-3.80;90.70;;;;;;4934301;29;20263;-63
2024/01/13 05:45:52;;;;;;;0.60;0.60;;;-3.80;90.30;;;;;;4934610;29;20204;-63
2024/01/13 05:48:18;;;;;;;0.50;0.50;;;-3.80;90.40;;;;;;4934743;29;20186;-64
2024/01/13 05:50:43;;;;;;;0.50;0.50;;;-3.80;90.60;;;;;;4934397;29;20658;-64
2024/01/13 05:53:09;;;;;;;0.43;0.43;;;-3.80;90.80;;;;;;4934342;29;20190;-63
2024/01/13 05:55:35;;;;;;;0.60;0.60;;;-3.80;90.40;;;;;;4934566;29;20166;-63
2024/01/13 05:58:00;;;;;;;0.60;0.60;;;-3.70;90.30;;;;;;4934425;29;20297;-64
2024/01/13 06:00:26;;;;;;;0.67;0.67;;;-3.70;90.30;;;;;;4934319;29;20402;-64
2024/01/13 06:02:53;;;;;;;0.50;0.50;;;-3.80;90.40;;;;;;4934298;29;20186;-64
2024/01/13 06:05:18;;;;;;;1.60;1.20;;;-3.90;90.70;;;;;;4934295;29;20197;-63
2024/01/13 06:07:44;;;;;;;0.60;0.60;;;-4.00;90.90;;;;;;4934284;29;20182;-63
2024/01/13 06:10:10;;;;;;;0.40;0.40;;;-4.10;91.10;;;;;;4934175;29;20186;-64
2024/01/13 06:12:36;;;;;;;0.63;0.63;;;-4.10;91.00;;;;;;4934032;29;20629;-63
2024/01/13 06:15:02;;;;;;;0.47;0.47;;;-4.00;91.20;;;;;;4934257;29;20178;-64
2024/01/13 06:17:28;;;;;;;0.40;0.40;;;-4.00;91.10;;;;;;4934285;29;20457;-64
2024/01/13 06:19:53;;;;;;;0.50;0.50;;;-4.00;91.10;;;;;;4934300;29;20421;-63
2024/01/13 06:22:19;;;;;;;0.80;0.80;;;-3.90;91.00;;;;;;4935453;29;20246;-64
2024/01/13 06:24:45;;;;;;;0.53;0.53;;;-3.80;90.70;;;;;;4921612;29;20170;-63
2024/01/13 06:27:11;;;;;;;0.50;0.50;;;-3.80;90.00;;;;;;4938070;29;20236;-63
2024/01/13 06:29:36;;;;;;;0.60;0.60;;;-3.80;90.00;;;;;;4938071;29;20226;-64
2024/01/13 06:32:02;;;;;;;0.50;0.50;;;-3.80;90.10;;;;;;4937800;29;20230;-64
2024/01/13 06:34:28;;;;;;;0.60;0.60;;;-3.80;90.10;;;;;;4937965;29;20182;-62
2024/01/13 06:36:53;;;;;;;0.50;0.50;;;-3.70;90.00;;;;;;4937874;29;20684;-64
2024/01/13 06:39:19;;;;;;;0.40;0.40;;;-3.60;89.90;;;;;;4937978;29;20170;-63
2024/01/13 06:41:44;;;;;;;0.40;0.40;;;-3.60;89.90;;;;;;4920468;29;20280;-63
2024/01/13 06:44:10;;;;;;;0.40;0.40;;;-3.70;90.30;;;;;;4937753;29;20667;-62
2024/01/13 06:46:36;;;;;;;0.30;0.30;;;-3.70;90.20;;;;;;4937832;29;20253;-64
2024/01/13 06:49:01;;;;;;;0.50;0.50;;;-3.90;90.20;;;;;;4937642;29;20422;-63
2024/01/13 06:51:28;;;;;;;0.40;0.40;;;-3.90;90.40;;;;;;4937436;29;20229;-63
2024/01/13 06:53:53;;;;;;;0.40;0.40;;;-3.90;90.10;;;;;;4937563;29;20293;-64
2024/01/13 06:56:19;;;;;;;0.40;0.40;;;-3.90;90.00;;;;;;4937436;29;20252;-64
2024/01/13 06:58:44;;;;;;;0.80;0.80;;;-3.90;90.20;;;;;;4937410;29;20225;-64
2024/01/13 07:01:14;;;;;;;0.40;0.40;;;-3.90;90.50;;;;;;4937157;29;20233;-65
2024/01/13 07:03:42;;;;;;;0.40;0.40;;;-3.80;90.70;;;;;;4937316;29;20209;-63
2024/01/13 07:06:08;;;;;;;0.52;0.52;;;-3.70;90.80;;;;;;4937340;29;20194;-64
2024/01/13 07:08:34;;;;;;;0.55;0.55;;;-3.60;90.60;;;;;;4937234;29;20170;-64
2024/01/13 07:11:00;;;;;;;0.83;0.80;;;-3.50;90.50;;;;;;4937003;29;20240;-63
2024/01/13 07:13:25;;;;;;;0.73;0.73;;;-3.50;90.50;;;;;;4936989;29;20847;-64
2024/01/13 07:15:53;;;;;;;0.50;0.50;;;-3.60;90.60;;;;;;4937144;29;20205;-63
2024/01/13 07:18:19;;;;;;;0.50;0.50;;;-3.70;90.80;;;;;;4937099;29;20676;-64
2024/01/13 07:20:45;;;;;;;0.50;0.50;;;-3.60;91.00;;;;;;4919871;29;20181;-64
2024/01/13 07:23:10;;;;;;;0.60;0.60;;;-3.60;91.00;;;;;;4937087;29;20233;-64
2024/01/13 07:25:36;;;;;;;0.50;0.50;;;-3.50;91.00;;;;;;4937319;29;20178;-65
2024/01/13 07:28:02;;;;;;;0.60;0.60;;;-3.50;90.80;;;;;;4937259;29;20249;-64
2024/01/13 07:30:27;;;;;;;0.40;0.40;;;-3.50;90.50;;;;;;4936950;29;20560;-64
2024/01/13 07:32:53;;;;;;;0.50;0.50;;;-3.40;90.60;;;;;;4936507;29;20966;-64
2024/01/13 07:35:19;;;;;;;0.43;0.43;;;-3.30;90.50;;;;;;4936958;29;20582;-63
2024/01/13 07:37:44;;;;;;;0.40;0.40;;;-3.20;90.50;;;;;;4936722;29;20289;-64
2024/01/13 07:40:10;;;;;;;0.40;0.40;;;-3.30;90.60;;;;;;4936594;29;20201;-64
2024/01/13 07:42:40;;;;;;;0.30;0.30;;;-3.30;90.80;;;;;;4936555;29;20688;-65
2024/01/13 07:45:06;;;;;;;0.40;0.40;;;-3.40;91.00;;;;;;4936607;29;20190;-62
2024/01/13 07:47:32;;;;;;;0.40;0.40;;;-3.50;91.40;;;;;;4936664;29;20171;-64
2024/01/13 07:49:57;;;;;;;0.40;0.40;;;-3.50;91.40;;;;;;4936578;29;20179;-63
2024/01/13 07:52:23;;;;;;;0.30;0.30;;;-3.30;91.50;;;;;;4936281;29;20193;-64
2024/01/13 07:54:49;;;;;;;0.40;0.40;;;-3.20;91.40;;;;;;4936661;29;20192;-64
2024/01/13 07:57:14;;;;;;;0.30;0.30;;;-3.10;91.20;;;;;;4936622;29;20210;-64
2024/01/13 07:59:40;;;;;;;0.40;0.40;;;-3.00;90.90;;;;;;4924605;29;20660;-64
2024/01/13 08:02:06;;;;;;;0.40;0.40;;;-2.90;91.10;;;;;;4917053;29;20178;-64
2024/01/13 08:04:32;;;;;;;0.50;0.50;;;-2.80;91.10;;;;;;4917432;29;20266;-64
2024/01/13 08:06:57;;;;;;;0.40;0.40;;;-2.70;90.90;;;;;;4917262;29;20419;-64
2024/01/13 08:09:23;;;;;;;0.40;0.40;;;-2.60;90.90;;;;;;4917528;29;20202;-64
2024/01/13 08:11:48;;;;;;;0.30;0.30;;;-2.50;90.80;;;;;;4916922;29;20258;-64
2024/01/13 08:14:18;;;;;;;0.40;0.40;;;-2.50;90.90;;;;;;4917270;29;20190;-64
2024/01/13 08:16:44;;;;;;;1.17;1.17;;;-2.00;91.60;;;;;;4917132;29;20171;-64
2024/01/13 08:19:12;;;;;;;6.05;5.45;;;-0.40;94.20;;;;;;4917014;29;20216;-64
2024/01/13 08:21:38;;;;;;;8.48;3.28;;;1.80;95.70;;;;;;4916606;29;20187;-64
2024/01/13 08:24:04;;;;;;;4.13;2.07;;;4.00;90.70;;;;;;4916986;29;20223;-63
2024/01/13 08:26:30;;;;;;;4.87;4.47;;;5.60;79.70;;;;;;4916939;29;20182;-63
2024/01/13 08:28:56;;;;;;;14.00;2.42;;;7.00;70.40;;;;;;4917012;29;20258;-63
2024/01/13 08:31:22;;;;;;;5.73;4.00;;;8.00;64.10;;;;;;4916571;29;20732;-63
2024/01/13 08:33:47;;;;;;;4.10;2.60;;;8.70;59.30;;;;;;4916820;29;20431;-63
2024/01/13 08:36:13;;;;;;;2.67;2.47;;;8.40;53.30;;;;;;4916691;29;20187;-63
2024/01/13 08:38:39;;;;;;;2.23;2.13;;;8.10;54.10;;;;;;4916864;29;20214;-63
2024/01/13 08:41:04;;;;;;;4.47;2.27;;;7.80;52.40;;;;;;4916542;29;20175;-62
2024/01/13 08:43:30;;;;;;;1.67;1.57;;;7.10;52.60;;;;;;4916844;29;20203;-62
2024/01/13 08:45:56;;;;;;;3.43;1.93;;;6.50;53.10;;;;;;4916044;29;20194;-62
2024/01/13 08:48:22;;;;;;;1.13;1.08;;;5.90;54.40;;;;;;4916693;29;20193;-63
2024/01/13 08:50:47;;;;;;;2.73;1.63;;;5.30;55.20;;;;;;4916297;29;20187;-63
2024/01/13 08:53:13;;;;;;;2.97;1.80;;;4.60;56.80;;;;;;4916259;29;20230;-61
2024/01/13 08:55:39;;;;;;;9.30;2.03;;;4.20;58.20;;;;;;4916506;29;20190;-62
2024/01/13 08:58:04;;;;;;;1.40;0.73;;;3.90;59.10;;;;;;4916300;29;20650;-60
2024/01/13 09:00:32;;;;;;;0.83;0.83;;;4.00;60.60;;;;;;4916220;29;20234;-60
2024/01/13 09:02:57;;;;;;;1.50;1.40;;;4.30;60.80;;;;;;4916191;29;20210;-62
2024/01/13 09:05:23;;;;;;;2.23;2.03;;;4.50;60.40;;;;;;4916252;29;20175;-62
2024/01/13 09:07:49;;;;;;;2.00;1.30;;;4.90;59.80;;;;;;4916293;29;20189;-63
2024/01/13 09:10:15;;;;;;;1.30;0.67;;;5.30;59.40;;;;;;4916002;29;20186;-62
2024/01/13 09:12:40;;;;;;;4.20;1.95;;;5.70;58.20;;;;;;4915435;29;20209;-63
2024/01/13 09:15:09;;;;;;;4.17;1.90;;;5.90;56.90;;;;;;4916112;29;20266;-63
2024/01/13 09:17:35;;;;;;;4.18;2.00;;;6.30;57.60;;;;;;4916066;29;20210;-64
2024/01/13 09:20:01;;;;;;;2.70;2.23;;;7.00;56.90;;;;;;4915836;29;20190;-62
2024/01/13 09:22:26;;;;;;;1.87;1.77;;;7.60;54.50;;;;;;4915728;29;20191;-61
2024/01/13 09:24:52;;;;;;;3.67;2.10;;;8.10;53.70;;;;;;4915905;29;20202;-61
2024/01/13 09:27:17;;;;;;;3.10;2.77;;;8.80;52.60;;;;;;4915935;29;20181;-61
2024/01/13 09:29:45;;;;;;;7.33;4.43;;;9.40;52.30;;;;;;4915903;29;20704;-61
2024/01/13 09:32:12;;;;;;;3.20;2.90;;;10.00;49.70;;;;;;4915553;29;20262;-61
2024/01/13 09:34:38;;;;;;;4.63;3.10;;;10.20;48.80;;;;;;4915729;29;20871;-61
2024/01/13 09:37:03;;;;;;;5.37;3.50;;;10.70;48.30;;;;;;4915920;29;20452;-61
2024/01/13 09:39:29;;;;;;;2.60;2.47;;;11.20;46.90;;;;;;4915797;29;20173;-62
2024/01/13 09:41:56;;;;;;;2.00;1.10;;;11.80;45.30;;;;;;4915034;29;20191;-61
2024/01/13 09:44:22;;;;;;;1.53;1.43;;;12.30;45.00;;;;;;4915692;29;20171;-61
2024/01/13 09:46:51;;;;;;;4.50;2.90;;;13.10;44.10;;;;;;4915513;29;20489;-62
2024/01/13 09:49:17;;;;;;;3.07;2.47;;;14.20;42.90;;;;;;4915624;29;20537;-59
2024/01/13 09:51:44;;;;;;;4.57;3.07;;;15.40;41.50;;;;;;4915470;29;20491;-61
2024/01/13 09:54:21;;;;;;;2.03;1.93;;;16.10;39.80;;;;;;4915417;29;20803;-62
2024/01/13 09:56:47;;;;;;;2.03;1.83;;;16.70;38.20;;;;;;4914643;29;20463;-62
2024/01/13 09:59:13;;;;;;;7.07;2.77;;;16.90;36.50;;;;;;4915371;29;20477;-62
2024/01/13 10:01:39;;;;;;;4.10;3.23;;;17.00;35.40;;;;;;4915012;29;20415;-62
2024/01/13 10:04:06;;;;;;;5.13;3.23;;;17.10;34.70;;;;;;4915286;29;20194;-62
2024/01/13 10:06:33;;;;;;;4.30;2.40;;;17.10;34.70;;;;;;4915456;29;20490;-62
2024/01/13 10:08:59;;;;;;;1.97;1.77;;;17.20;34.70;;;;;;4915465;29;20471;-62
2024/01/13 10:11:27;;;;;;;2.10;1.90;;;17.50;35.20;;;;;;4914990;29;20415;-62
2024/01/13 10:14:04;;;;;;;3.03;2.70;;;17.80;34.50;;;;;;4915149;29;20437;-62
2024/01/13 10:16:31;;;;;;;4.80;2.23;;;17.90;34.20;;;;;;4915509;29;20438;-62
2024/01/13 10:19:07;;;;;;;2.63;2.40;;;17.70;33.90;;;;;;4915179;29;20884;-62
2024/01/13 10:21:35;;;;;;;2.37;1.83;;;17.40;34.20;;;;;;4914978;29;20508;-63
2024/01/13 10:24:01;;;;;;;3.60;2.30;;;17.20;34.50;;;;;;4915190;29;20435;-63
2024/01/13 10:26:29;;;;;;;2.50;2.03;;;17.30;34.80;;;;;;4915293;29;20497;-62
2024/01/13 10:28:56;;;;;;;3.93;2.80;;;17.50;35.00;;;;;;4914652;29;20500;-62
2024/01/13 10:31:23;;;;;;;3.20;2.70;;;17.50;34.60;;;;;;4914851;29;20422;-63
2024/01/13 10:33:49;;;;;;;4.10;3.70;;;17.50;34.50;;;;;;4915084;29;20455;-62
2024/01/13 10:36:27;;;;;;;3.07;2.37;;;17.30;34.30;;;;;;4915168;29;20458;-62
2024/01/13 10:38:55;;;;;;;3.90;3.20;;;16.50;35.30;;;;;;4914824;29;20450;-61
2024/01/13 10:41:23;;;;;;;3.47;3.20;;;16.00;35.80;;;;;;4914759;29;20481;-61
2024/01/13 10:43:54;;;;;;;3.13;2.57;;;16.00;36.60;;;;;;4914941;29;20454;-61
2024/01/13 10:46:22;;;;;;;2.13;1.93;;;16.10;35.80;;;;;;4915205;29;20883;-61
2024/01/13 10:48:51;;;;;;;3.37;2.17;;;15.90;36.00;;;;;;4915039;29;20423;-61
2024/01/13 10:51:34;;;;;;;2.70;2.00;;;15.60;36.40;;;;;;4914689;29;20415;-61
2024/01/13 10:54:01;;;;;;;1.90;1.80;;;15.30;37.30;;;;;;4915162;29;20465;-61
2024/01/13 10:56:31;;;;;;;2.20;1.67;;;14.50;37.10;;;;;;4945731;23;20560;-59
2024/01/13 10:58:58;;;;;;;1.57;1.47;;;13.30;38.30;;;;;;4953038;29;20995;-60
2024/01/13 11:01:27;;;;;;;2.67;1.83;;;12.50;40.40;;;;;;4952603;29;20500;-60
2024/01/13 11:03:54;;;;;;;2.37;1.80;;;12.20;40.80;;;;;;4953073;29;20473;-59
2024/01/13 11:06:23;;;;;;;2.90;2.30;;;12.00;41.30;;;;;;4940218;29;20432;-59
2024/01/13 11:08:50;;;;;;;2.70;2.13;;;11.30;42.50;;;;;;4935683;29;20418;-59
2024/01/13 11:11:38;;;;;;;5.13;1.63;;;10.10;43.90;;;;;;4937148;29;20424;-59
2024/01/13 11:14:12;;;;;;;4.07;2.20;;;9.10;46.10;;;;;;4937343;29;20792;-59
2024/01/13 11:16:39;;;;;;;2.70;1.60;;;8.50;47.30;;;;;;4937330;29;20493;-59
2024/01/13 11:19:07;;;;;;;1.95;1.00;;;8.10;48.70;;;;;;4937161;29;20464;-59
2024/01/13 11:21:33;;;;;;;1.00;1.00;;;7.60;50.20;;;;;;4937205;29;20657;-59
2024/01/13 11:24:13;;;;;;;2.40;2.03;;;7.30;51.70;;;;;;4937251;29;20201;-59
2024/01/13 11:26:43;;;;;;;1.27;1.17;;;7.10;53.10;;;;;;4937056;29;20425;-59
2024/01/13 11:29:16;;;;;;;2.45;1.23;;;6.90;53.70;;;;;;4937317;29;20185;-62
2024/01/13 11:31:42;;;;;;;3.40;1.50;;;6.60;54.00;;;;;;4919729;29;20672;-61
2024/01/13 11:34:11;;;;;;;0.98;0.90;;;6.30;55.20;;;;;;4936975;29;20182;-61
2024/01/13 11:36:43;;;;;;;0.88;0.80;;;6.20;56.10;;;;;;4937037;29;20262;-61
2024/01/13 11:39:09;;;;;;;1.58;1.15;;;6.00;56.90;;;;;;4936901;29;20212;-62
2024/01/13 11:41:41;;;;;;;1.17;0.98;;;5.80;57.90;;;;;;4936736;29;20185;-61
2024/01/13 11:44:08;;;;;;;3.28;3.08;;;5.80;58.60;;;;;;4936857;29;20649;-61
2024/01/13 11:46:38;;;;;;;1.08;0.90;;;5.80;59.10;;;;;;4936862;29;20648;-62
2024/01/13 11:49:07;;;;;;;0.70;0.65;;;5.70;58.70;;;;;;4936777;29;20231;-62
2024/01/13 11:51:58;;;;;;;0.47;0.47;;;5.70;58.60;;;;;;4935714;29;20203;-61
2024/01/13 11:54:25;;;;;;;2.55;1.10;;;5.50;59.00;;;;;;4930694;29;20192;-61
2024/01/13 11:56:53;;;;;;;1.17;1.08;;;5.30;59.80;;;;;;4908218;29;20709;-61
2024/01/13 12:00:01;;;;;;;0.90;0.77;;;5.00;61.00;;;;;;4903972;29;20212;-61
2024/01/13 12:02:28;;;;;;;1.33;1.25;;;4.80;61.10;;;;;;4907015;29;20214;-61
2024/01/13 12:04:57;;;;;;;1.27;1.17;;;4.60;62.10;;;;;;4906543;29;20189;-61
2024/01/13 12:07:23;;;;;;;2.50;1.90;;;4.40;62.70;;;;;;4906020;29;20236;-61
2024/01/13 12:09:49;;;;;;;5.00;1.40;;;4.20;63.30;;;;;;4911626;29;20183;-61
2024/01/13 12:12:18;;;;;;;1.03;0.93;;;4.10;64.10;;;;;;4903122;29;20942;-61
2024/01/13 12:14:44;;;;;;;0.93;0.82;;;4.00;64.20;;;;;;4908416;29;20179;-61
2024/01/13 12:17:11;;;;;;;0.60;0.60;;;4.00;64.60;;;;;;4906795;29;20184;-61
2024/01/13 12:19:41;;;;;;;2.00;1.38;;;4.10;63.70;;;;;;4905918;29;20176;-62
2024/01/13 12:22:08;;;;;;;0.60;0.60;;;4.10;64.20;;;;;;4905340;29;20585;-61
2024/01/13 12:24:39;;;;;;;1.85;1.40;;;4.10;65.30;;;;;;4907069;29;20522;-61
2024/01/13 12:27:05;;;;;;;2.50;1.48;;;4.00;65.60;;;;;;4903532;29;20554;-61
2024/01/13 12:29:33;;;;;;;0.83;0.73;;;3.90;66.30;;;;;;4906527;29;20187;-61
2024/01/13 12:32:03;;;;;;;1.77;0.75;;;3.90;66.30;;;;;;4908593;29;20201;-61
2024/01/13 12:34:39;;;;;;;0.95;0.80;;;3.90;66.60;;;;;;4911363;29;20553;-61
2024/01/13 12:37:05;;;;;;;0.60;0.60;;;3.80;66.60;;;;;;4890463;29;20219;-61
2024/01/13 12:39:31;;;;;;;1.73;1.00;;;3.70;67.90;;;;;;4907681;29;20899;-61
2024/01/13 12:41:58;;;;;;;2.10;2.00;;;3.70;67.10;;;;;;4906646;29;20171;-61
2024/01/13 12:44:25;;;;;;;0.73;0.73;;;3.70;66.80;;;;;;4906331;29;20559;-61